createdAt,value
2018-09-04T00:01:27.231Z,99654.67
2018-09-04T00:03:55.926Z,99653.69
2018-09-04T00:06:24.637Z,99654.77
2018-09-04T00:08:53.258Z,99653.28
2018-09-04T00:11:21.948Z,99658.26
2018-09-04T00:13:50.655Z,99653.88
2018-09-04T00:16:19.909Z,99648.91
2018-09-04T00:18:48.592Z,99652.29
2018-09-04T00:21:17.888Z,99648.88
2018-09-04T00:23:46.543Z,99656.48
2018-09-04T00:26:15.199Z,99654.04
2018-09-04T00:28:43.873Z,99657.86
2018-09-04T00:31:12.553Z,99656.78
2018-09-04T00:33:41.238Z,99663.34
2018-09-04T00:36:10.054Z,99659.08
2018-09-04T00:38:38.777Z,99664.74
2018-09-04T00:41:07.747Z,99665.34
2018-09-04T00:43:36.341Z,99659.25
2018-09-04T00:46:06.041Z,99662.28
2018-09-04T00:48:34.729Z,99662.14
2018-09-04T00:51:03.389Z,99667.63
2018-09-04T00:53:32.230Z,99664.16
2018-09-04T00:56:00.909Z,99667.56
2018-09-04T00:58:29.730Z,99664.53
2018-09-04T01:00:58.480Z,99664.80
2018-09-04T01:03:27.301Z,99672.09
2018-09-04T01:05:56.088Z,99665.83
2018-09-04T01:08:24.884Z,99664.61
2018-09-04T01:10:54.057Z,99653.59
2018-09-04T01:13:22.746Z,99654.22
2018-09-04T01:15:51.458Z,99653.62
2018-09-04T01:18:20.058Z,99644.88
2018-09-04T01:20:48.704Z,99640.87
2018-09-04T01:23:17.453Z,99639.02
2018-09-04T01:25:46.329Z,99636.83
2018-09-04T01:28:15.089Z,99637.65
2018-09-04T01:30:43.697Z,99641.36
2018-09-04T01:33:12.400Z,99641.46
2018-09-04T01:35:41.121Z,99639.83
2018-09-04T01:38:09.835Z,99638.11
2018-09-04T01:40:38.658Z,99635.99
2018-09-04T01:43:08.204Z,99640.06
2018-09-04T01:45:36.993Z,99641.83
2018-09-04T01:48:05.809Z,99644.83
2018-09-04T01:50:34.473Z,99645.52
2018-09-04T01:53:03.215Z,99641.02
2018-09-04T01:55:31.910Z,99640.01
2018-09-04T01:58:00.671Z,99640.33
2018-09-04T02:00:30.422Z,99649.16
2018-09-04T02:02:59.065Z,99644.84
2018-09-04T02:05:28.266Z,99642.50
2018-09-04T02:07:57.326Z,99641.89
2018-09-04T02:10:26.146Z,99642.84
2018-09-04T02:12:55.376Z,99640.29
2018-09-04T02:15:24.173Z,99636.98
2018-09-04T02:17:52.918Z,99637.19
2018-09-04T02:20:22.698Z,99636.79
2018-09-04T02:22:51.461Z,99632.15
2018-09-04T02:25:20.290Z,99635.98
2018-09-04T02:27:49.673Z,99634.86
2018-09-04T02:30:18.403Z,99639.44
2018-09-04T02:32:47.062Z,99636.98
2018-09-04T02:35:15.842Z,99638.55
2018-09-04T02:37:45.016Z,99648.29
2018-09-04T02:40:13.777Z,99646.99
2018-09-04T02:42:42.567Z,99642.93
2018-09-04T02:45:11.331Z,99636.27
2018-09-04T02:47:40.020Z,99643.98
2018-09-04T02:50:09.056Z,99642.21
2018-09-04T02:52:37.836Z,99641.22
2018-09-04T02:55:07.025Z,99636.09
2018-09-04T02:57:36.395Z,99635.14
2018-09-04T03:00:05.186Z,99637.80
2018-09-04T03:02:34.769Z,99640.47
2018-09-04T03:05:03.405Z,99636.84
2018-09-04T03:07:32.129Z,99636.74
2018-09-04T03:10:00.909Z,99640.84
2018-09-04T03:12:29.634Z,99642.31
2018-09-04T03:15:01.265Z,99648.49
2018-09-04T03:17:29.893Z,99641.73
2018-09-04T03:19:59.398Z,99646.78
2018-09-04T03:22:29.089Z,99645.73
2018-09-04T03:24:59.458Z,99636.41
2018-09-04T03:27:28.186Z,99638.31
2018-09-04T03:29:56.897Z,99641.73
2018-09-04T03:32:25.710Z,99641.73
2018-09-04T03:34:54.332Z,99642.96
2018-09-04T03:37:23.018Z,99637.26
2018-09-04T03:39:51.984Z,99637.73
2018-09-04T03:42:20.588Z,99640.77
2018-09-04T03:44:49.443Z,99645.14
2018-09-04T03:47:18.216Z,99642.11
2018-09-04T03:49:47.050Z,99642.21
2018-09-04T03:52:15.704Z,99640.98
2018-09-04T03:54:44.244Z,99645.35
2018-09-04T03:57:15.805Z,99638.22
2018-09-04T03:59:44.558Z,99640.98
2018-09-04T04:02:13.339Z,99639.17
2018-09-04T04:04:41.959Z,99640.26
2018-09-04T04:07:10.562Z,99639.03
2018-09-04T04:09:39.380Z,99638.93
2018-09-04T04:12:08.124Z,99631.42
2018-09-04T04:14:37.845Z,99634.08
2018-09-04T04:17:06.889Z,99630.94
2018-09-04T04:19:35.610Z,99630.94
2018-09-04T04:22:04.323Z,99634.18
2018-09-04T04:24:33.001Z,99641.59
2018-09-04T04:27:02.937Z,99641.94
2018-09-04T04:29:32.059Z,99649.82
2018-09-04T04:32:02.061Z,99651.43
2018-09-04T04:34:31.462Z,99647.06
2018-09-04T04:37:00.310Z,99655.80
2018-09-04T04:39:29.364Z,99644.95
2018-09-04T04:41:58.461Z,99653.52
2018-09-04T04:44:27.250Z,99654.13
2018-09-04T04:46:57.121Z,99656.69
2018-09-04T04:49:26.787Z,99645.25
2018-09-04T04:51:55.675Z,99646.38
2018-09-04T04:54:24.334Z,99648.84
2018-09-04T04:56:53.271Z,99650.67
2018-09-04T04:59:21.856Z,99653.03
2018-09-04T05:01:51.524Z,99655.76
2018-09-04T05:04:24.048Z,99663.92
2018-09-04T05:06:52.785Z,99660.91
2018-09-04T05:09:21.461Z,99662.89
2018-09-04T05:11:50.165Z,99664.01
2018-09-04T05:14:19.003Z,99668.17
2018-09-04T05:16:47.798Z,99667.34
2018-09-04T05:19:17.451Z,99671.51
2018-09-04T05:21:46.124Z,99672.52
2018-09-04T05:24:14.853Z,99672.58
2018-09-04T05:26:43.467Z,99674.68
2018-09-04T05:29:12.272Z,99669.30
2018-09-04T05:31:47.010Z,99669.80
2018-09-04T05:34:15.904Z,99665.25
2018-09-04T05:36:44.561Z,99667.83
2018-09-04T05:39:13.195Z,99669.24
2018-09-04T05:41:42.853Z,99668.70
2018-09-04T05:44:11.729Z,99670.30
2018-09-04T05:46:44.096Z,99675.69
2018-09-04T05:49:15.367Z,99670.24
2018-09-04T05:51:45.046Z,99668.61
2018-09-04T05:54:13.861Z,99667.43
2018-09-04T05:56:45.274Z,99656.92
2018-09-04T05:59:14.001Z,99657.44
2018-09-04T06:01:43.733Z,99651.04
2018-09-04T06:04:12.559Z,99648.48
2018-09-04T06:06:41.261Z,99655.44
2018-09-04T06:09:10.151Z,99652.64
2018-09-04T06:11:38.970Z,99654.88
2018-09-04T06:14:07.701Z,99650.41
2018-09-04T06:16:36.502Z,99654.91
2018-09-04T06:19:05.402Z,99659.77
2018-09-04T06:21:34.210Z,99660.77
2018-09-04T06:24:03.052Z,99662.70
2018-09-04T06:26:31.726Z,99664.76
2018-09-04T06:29:00.465Z,99658.55
2018-09-04T06:31:29.143Z,99657.45
2018-09-04T06:33:57.972Z,99654.73
2018-09-04T06:36:27.733Z,99647.44
2018-09-04T06:38:56.304Z,99655.50
2018-09-04T06:41:25.925Z,99649.66
2018-09-04T06:43:56.001Z,99641.38
2018-09-04T06:46:24.893Z,99643.08
2018-09-04T06:48:53.514Z,99644.36
2018-09-04T06:51:22.301Z,99646.94
2018-09-04T06:53:50.963Z,99643.52
2018-09-04T06:56:19.637Z,99640.06
2018-09-04T06:58:48.553Z,99644.73
2018-09-04T07:01:17.144Z,99642.45
2018-09-04T07:03:45.764Z,99644.02
2018-09-04T07:06:14.634Z,99642.41
2018-09-04T07:08:43.317Z,99642.90
2018-09-04T07:11:11.982Z,99643.17
2018-09-04T07:13:40.839Z,99638.02
2018-09-04T07:16:09.503Z,99647.34
2018-09-04T07:18:38.465Z,99641.56
2018-09-04T07:21:07.081Z,99643.70
2018-09-04T07:23:35.836Z,99645.45
2018-09-04T07:26:05.047Z,99647.45
2018-09-04T07:28:33.814Z,99649.81
2018-09-04T07:31:02.757Z,99643.60
2018-09-04T07:33:31.388Z,99643.09
2018-09-04T07:36:00.083Z,99640.42
2018-09-04T07:38:28.834Z,99643.79
2018-09-04T07:40:57.500Z,99644.11
2018-09-04T07:43:26.370Z,99650.20
2018-09-04T07:45:55.094Z,99651.02
2018-09-04T07:48:24.719Z,99656.66
2018-09-04T07:50:53.599Z,99660.22
2018-09-04T07:53:22.211Z,99666.83
2018-09-04T07:55:50.866Z,99661.97
2018-09-04T07:58:20.314Z,99669.64
2018-09-04T08:00:49.080Z,99663.19
2018-09-04T08:03:17.891Z,99671.38
2018-09-04T08:05:46.558Z,99673.78
2018-09-04T08:08:15.631Z,99670.84
2018-09-04T08:10:45.378Z,99677.14
2018-09-04T08:13:14.063Z,99671.27
2018-09-04T08:15:43.485Z,99674.43
2018-09-04T08:18:12.225Z,99675.23
2018-09-04T08:20:41.605Z,99673.73
2018-09-04T08:23:10.185Z,99674.88
2018-09-04T08:25:38.897Z,99679.73
2018-09-04T08:28:07.959Z,99677.08
2018-09-04T08:30:36.541Z,99680.83
2018-09-04T08:33:05.369Z,99683.27
2018-09-04T08:35:33.926Z,99684.95
2018-09-04T08:38:02.592Z,99683.77
2018-09-04T08:40:33.024Z,99681.11
2018-09-04T08:43:02.148Z,99688.43
2018-09-04T08:45:31.864Z,99690.32
2018-09-04T08:48:01.937Z,99675.53
2018-09-04T08:50:32.436Z,99671.36
2018-09-04T08:53:01.412Z,99675.41
2018-09-04T08:55:30.069Z,99670.10
2018-09-04T08:57:58.769Z,99672.48
2018-09-04T09:00:28.109Z,99671.48
2018-09-04T09:02:56.755Z,99666.98
2018-09-04T09:05:25.743Z,99673.75
2018-09-04T09:07:54.678Z,99673.62
2018-09-04T09:10:23.373Z,99668.48
2018-09-04T09:12:52.342Z,99670.10
2018-09-04T09:15:21.035Z,99670.61
2018-09-04T09:17:51.022Z,99667.40
2018-09-04T09:20:20.465Z,99664.98
2018-09-04T09:22:49.952Z,99663.60
2018-09-04T09:25:19.300Z,99662.22
2018-09-04T09:27:48.386Z,99662.12
2018-09-04T09:30:17.074Z,99664.38
2018-09-04T09:32:45.802Z,99662.02
2018-09-04T09:35:16.250Z,99669.65
2018-09-04T09:37:44.958Z,99674.58
2018-09-04T09:40:13.720Z,99668.25
2018-09-04T09:42:44.331Z,99666.59
2018-09-04T09:45:13.685Z,99667.44
2018-09-04T09:47:47.525Z,99664.08
2018-09-04T09:50:16.272Z,99666.34
2018-09-04T09:52:45.599Z,99657.31
2018-09-04T09:55:15.897Z,99655.34
2018-09-04T09:57:44.651Z,99655.89
2018-09-04T10:00:18.814Z,99652.36
2018-09-04T10:02:55.597Z,99648.36
2018-09-04T10:05:24.305Z,99638.64
2018-09-04T10:07:53.292Z,99640.67
2018-09-04T10:10:22.144Z,99641.38
2018-09-04T10:12:50.917Z,99628.52
2018-09-04T10:15:19.678Z,99633.93
2018-09-04T10:17:48.436Z,99639.34
2018-09-04T10:20:17.323Z,99629.71
2018-09-04T10:22:46.013Z,99637.33
2018-09-04T10:25:15.393Z,99636.45
2018-09-04T10:27:44.157Z,99639.97
2018-09-04T10:30:14.081Z,99637.04
2018-09-04T10:32:57.253Z,99636.85
2018-09-04T10:35:26.031Z,99640.92
2018-09-04T10:37:54.765Z,99637.90
2018-09-04T10:40:28.693Z,99638.45
2018-09-04T10:42:57.322Z,99629.09
2018-09-04T10:45:31.249Z,99625.41
2018-09-04T10:47:59.997Z,99636.25
2018-09-04T10:50:29.349Z,99627.45
2018-09-04T10:52:58.181Z,99631.55
2018-09-04T10:55:26.919Z,99632.91
2018-09-04T10:57:55.800Z,99626.13
2018-09-04T11:00:24.463Z,99625.86
2018-09-04T11:02:53.385Z,99615.02
2018-09-04T11:05:22.213Z,99623.16
2018-09-04T11:07:50.934Z,99623.29
2018-09-04T11:10:27.277Z,99620.98
2018-09-04T11:12:56.093Z,99621.27
2018-09-04T11:15:24.938Z,99625.18
2018-09-04T11:17:53.961Z,99622.67
2018-09-04T11:20:22.653Z,99620.92
2018-09-04T11:22:51.613Z,99623.28
2018-09-04T11:25:20.361Z,99613.47
2018-09-04T11:27:50.086Z,99622.21
2018-09-04T11:30:18.930Z,99612.14
2018-09-04T11:32:48.123Z,99614.23
2018-09-04T11:35:16.795Z,99609.43
2018-09-04T11:37:45.506Z,99614.42
2018-09-04T11:40:14.248Z,99614.09
2018-09-04T11:45:16.894Z,99601.25
2018-09-04T11:47:45.626Z,99596.14
2018-09-04T11:50:14.304Z,99603.70
2018-09-04T11:52:43.335Z,99597.44
2018-09-04T11:55:12.369Z,99601.89
2018-09-04T11:57:42.431Z,99596.83
2018-09-04T12:00:16.058Z,99590.26
2018-09-04T12:02:45.439Z,99583.70
2018-09-04T12:05:14.145Z,99585.44
2018-09-04T12:07:42.840Z,99587.07
2018-09-04T12:10:11.628Z,99585.70
2018-09-04T12:12:40.669Z,99585.28
2018-09-04T12:15:09.195Z,99592.30
2018-09-04T12:17:37.905Z,99590.83
2018-09-04T12:20:14.400Z,99582.27
2018-09-04T12:22:42.992Z,99585.52
2018-09-04T12:25:11.626Z,99587.07
2018-09-04T12:27:40.338Z,99585.84
2018-09-04T12:30:09.079Z,99576.03
2018-09-04T12:32:38.724Z,99580.26
2018-09-04T12:35:08.453Z,99582.23
2018-09-04T12:37:37.261Z,99573.23
2018-09-04T12:40:06.156Z,99564.91
2018-09-04T12:42:35.479Z,99564.16
2018-09-04T12:45:04.180Z,99557.84
2018-09-04T12:47:32.808Z,99549.14
2018-09-04T12:50:01.704Z,99549.14
2018-09-04T12:52:30.345Z,99556.63
2018-09-04T12:54:59.057Z,99550.66
2018-09-04T12:57:27.810Z,99540.77
2018-09-04T12:59:58.727Z,99552.06
2018-09-04T13:02:27.538Z,99550.56
2018-09-04T13:04:56.118Z,99552.28
2018-09-04T13:07:24.780Z,99546.10
2018-09-04T13:09:53.712Z,99543.47
2018-09-04T13:12:22.477Z,99548.48
2018-09-04T13:14:51.507Z,99544.04
2018-09-04T13:17:20.157Z,99559.84
2018-09-04T13:19:48.837Z,99554.58
2018-09-04T13:22:17.458Z,99555.74
2018-09-04T13:24:46.326Z,99552.16
2018-09-04T13:27:15.179Z,99545.97
2018-09-04T13:29:43.737Z,99553.77
2018-09-04T13:32:12.423Z,99546.25
2018-09-04T13:34:41.225Z,99548.52
2018-09-04T13:37:10.636Z,99540.62
2018-09-04T13:39:39.236Z,99541.92
2018-09-04T13:42:08.599Z,99546.53
2018-09-04T13:44:37.302Z,99546.30
2018-09-04T13:47:06.918Z,99546.31
2018-09-04T13:49:36.739Z,99541.02
2018-09-04T13:52:05.882Z,99543.20
2018-09-04T13:54:34.514Z,99544.11
2018-09-04T13:57:03.265Z,99545.80
2018-09-04T13:59:31.888Z,99546.56
2018-09-04T14:02:00.482Z,99544.34
2018-09-04T14:04:29.130Z,99533.11
2018-09-04T14:06:57.956Z,99541.34
2018-09-04T14:09:26.876Z,99539.06
2018-09-04T14:11:56.089Z,99541.03
2018-09-04T14:14:26.541Z,99531.05
2018-09-04T14:16:55.623Z,99537.86
2018-09-04T14:19:25.629Z,99531.73
2018-09-04T14:21:54.282Z,99530.16
2018-09-04T14:24:22.986Z,99536.72
2018-09-04T14:26:51.681Z,99535.45
2018-09-04T14:29:53.163Z,99541.94
2018-09-04T14:31:52.911Z,99541.84
2018-09-04T14:34:21.432Z,99535.59
2018-09-04T14:36:50.329Z,99539.80
2018-09-04T14:39:18.803Z,99541.73
2018-09-04T14:41:48.115Z,99542.94
2018-09-04T14:44:17.816Z,99533.59
2018-09-04T14:46:47.728Z,99534.38
2018-09-04T14:49:16.655Z,99534.94
2018-09-04T14:51:45.425Z,99538.95
2018-09-04T14:54:14.176Z,99538.78
2018-09-04T14:56:44.472Z,99540.82
2018-09-04T14:59:13.111Z,99533.67
2018-09-04T15:01:43.276Z,99538.95
2018-09-04T15:04:12.018Z,99543.30
2018-09-04T15:06:41.400Z,99546.16
2018-09-04T15:09:13.110Z,99548.33
2018-09-04T15:11:41.769Z,99546.84
2018-09-04T15:14:10.306Z,99548.05
2018-09-04T15:16:39.423Z,99547.08
2018-09-04T15:19:08.332Z,99537.80
2018-09-04T15:21:37.988Z,99548.45
2018-09-04T15:24:07.867Z,99550.82
2018-09-04T15:26:36.971Z,99545.63
2018-09-04T15:29:05.553Z,99555.00
2018-09-04T15:31:35.320Z,99557.77
2018-09-04T15:34:03.929Z,99562.45
2018-09-04T15:36:32.625Z,99563.27
2018-09-04T15:39:01.434Z,99564.57
2018-09-04T15:41:30.064Z,99563.66
2018-09-04T15:43:59.380Z,99565.21
2018-09-04T15:46:28.204Z,99573.27
2018-09-04T15:49:02.120Z,99570.12
2018-09-04T15:51:39.410Z,99566.20
2018-09-04T15:54:08.252Z,99574.86
2018-09-04T15:56:36.915Z,99573.95
2018-09-04T15:59:05.529Z,99574.78
2018-09-04T16:01:35.117Z,99573.18
2018-09-04T16:04:04.015Z,99575.72
2018-09-04T16:06:32.615Z,99579.50
2018-09-04T16:09:01.260Z,99582.40
2018-09-04T16:11:29.971Z,99588.23
2018-09-04T16:13:58.712Z,99585.05
2018-09-04T16:16:27.280Z,99586.91
2018-09-04T16:18:55.844Z,99592.42
2018-09-04T16:21:24.550Z,99591.34
2018-09-04T16:23:53.165Z,99589.26
2018-09-04T16:26:23.562Z,99592.01
2018-09-04T16:28:53.355Z,99593.78
2018-09-04T16:31:22.120Z,99592.02
2018-09-04T16:33:50.820Z,99593.16
2018-09-04T16:36:20.413Z,99600.27
2018-09-04T16:38:50.744Z,99592.86
2018-09-04T16:41:19.360Z,99600.75
2018-09-04T16:43:48.119Z,99603.20
2018-09-04T16:46:16.829Z,99612.80
2018-09-04T16:48:45.577Z,99609.32
2018-09-04T16:51:14.366Z,99607.17
2018-09-04T16:53:43.106Z,99614.69
2018-09-04T16:56:11.773Z,99607.54
2018-09-04T16:58:40.468Z,99610.27
2018-09-04T17:01:10.329Z,99620.52
2018-09-04T17:03:40.057Z,99624.67
2018-09-04T17:06:08.652Z,99624.62
2018-09-04T17:08:37.398Z,99631.81
2018-09-04T17:11:06.233Z,99633.70
2018-09-04T17:13:34.919Z,99632.42
2018-09-04T17:16:03.750Z,99632.33
2018-09-04T17:18:32.487Z,99633.95
2018-09-04T17:21:01.122Z,99634.52
2018-09-04T17:23:29.991Z,99643.19
2018-09-04T17:25:58.577Z,99636.63
2018-09-04T17:28:28.203Z,99632.28
2018-09-04T17:30:56.835Z,99642.61
2018-09-04T17:33:26.460Z,99648.19
2018-09-04T17:35:55.307Z,99654.27
2018-09-04T17:38:24.067Z,99650.75
2018-09-04T17:40:54.671Z,99658.31
2018-09-04T17:43:26.079Z,99659.86
2018-09-04T17:45:54.830Z,99657.02
2018-09-04T17:48:23.665Z,99660.29
2018-09-04T17:50:53.275Z,99663.52
2018-09-04T17:53:21.796Z,99661.70
2018-09-04T17:55:50.419Z,99655.12
2018-09-04T17:58:19.179Z,99664.72
2018-09-04T18:00:48.994Z,99669.60
2018-09-04T18:03:17.675Z,99660.35
2018-09-04T18:05:46.406Z,99666.08
2018-09-04T18:08:15.073Z,99666.10
2018-09-04T18:10:44.052Z,99680.55
2018-09-04T18:13:12.863Z,99680.63
2018-09-04T18:15:41.701Z,99682.97
2018-09-04T18:18:10.401Z,99685.48
2018-09-04T18:20:39.024Z,99693.95
2018-09-04T18:23:07.712Z,99698.81
2018-09-04T18:25:36.383Z,99698.28
2018-09-04T18:28:05.271Z,99697.50
2018-09-04T18:30:34.219Z,99706.81
2018-09-04T18:33:03.884Z,99709.89
2018-09-04T18:35:32.821Z,99712.71
2018-09-04T18:38:01.727Z,99719.33
2018-09-04T18:40:30.471Z,99726.24
2018-09-04T18:42:59.197Z,99721.86
2018-09-04T18:45:46.583Z,99721.20
2018-09-04T18:48:15.665Z,99725.41
2018-09-04T18:50:48.178Z,99733.91
2018-09-04T18:53:16.945Z,99737.52
2018-09-04T18:55:46.120Z,99732.80
2018-09-04T18:58:16.838Z,99739.32
2018-09-04T19:00:46.042Z,99743.48
2018-09-04T19:03:14.968Z,99740.13
2018-09-04T19:05:44.809Z,99747.33
2018-09-04T19:08:13.609Z,99747.09
2018-09-04T19:10:45.936Z,99748.67
2018-09-04T19:13:15.851Z,99756.11
2018-09-04T19:15:45.776Z,99756.09
2018-09-04T19:18:15.576Z,99761.50
2018-09-04T19:20:44.617Z,99767.48
2018-09-04T19:23:13.536Z,99766.42
2018-09-04T19:25:42.866Z,99769.22
2018-09-04T19:28:12.620Z,99766.91
2018-09-04T19:30:41.636Z,99771.45
2018-09-04T19:33:10.399Z,99771.57
2018-09-04T19:35:40.517Z,99775.62
2018-09-04T19:38:09.346Z,99774.03
2018-09-04T19:40:39.363Z,99778.04
2018-09-04T19:43:08.871Z,99780.63
2018-09-04T19:45:38.792Z,99781.59
2018-09-04T19:48:08.395Z,99778.67
2018-09-04T19:50:37.294Z,99779.64
2018-09-04T19:53:06.075Z,99772.70
2018-09-04T19:55:34.819Z,99778.19
2018-09-04T19:58:03.533Z,99779.52
2018-09-04T20:00:32.323Z,99785.84
2018-09-04T20:03:01.153Z,99782.07
2018-09-04T20:05:29.952Z,99784.14
2018-09-04T20:07:58.834Z,99782.92
2018-09-04T20:10:27.460Z,99783.64
2018-09-04T20:12:56.177Z,99788.27
2018-09-04T20:15:25.380Z,99791.55
2018-09-04T20:17:55.916Z,99786.91
2018-09-04T20:20:24.564Z,99793.59
2018-09-04T20:22:53.792Z,99798.45
2018-09-04T20:25:22.943Z,99796.86
2018-09-04T20:27:51.796Z,99798.83
2018-09-04T20:30:20.493Z,99799.92
2018-09-04T20:32:49.209Z,99793.34
2018-09-04T20:35:18.072Z,99800.41
2018-09-04T20:37:47.209Z,99796.88
2018-09-04T20:40:15.988Z,99795.53
2018-09-04T20:42:45.364Z,99798.08
2018-09-04T20:45:15.924Z,99793.19
2018-09-04T20:47:45.421Z,99790.52
2018-09-04T20:50:14.041Z,99794.63
2018-09-04T20:52:42.834Z,99790.00
2018-09-04T20:55:11.560Z,99788.44
2018-09-04T20:57:40.221Z,99791.45
2018-09-04T21:00:26.328Z,99794.70
2018-09-04T21:03:06.093Z,99798.77
2018-09-04T21:05:45.949Z,99804.56
2018-09-04T21:08:21.962Z,99802.48
2018-09-04T21:10:51.510Z,99801.59
2018-09-04T21:13:22.208Z,99797.66
2018-09-04T21:15:51.105Z,99803.75
2018-09-04T21:18:20.692Z,99807.02
2018-09-04T21:20:49.928Z,99806.12
2018-09-04T21:23:18.662Z,99805.01
2018-09-04T21:25:47.323Z,99804.89
2018-09-04T21:28:16.127Z,99800.47
2018-09-04T21:30:44.723Z,99803.09
2018-09-04T21:33:13.443Z,99802.61
2018-09-04T21:35:42.215Z,99811.05
2018-09-04T21:38:11.157Z,99811.86
2018-09-04T21:40:39.879Z,99812.54
2018-09-04T21:43:08.544Z,99809.45
2018-09-04T21:45:37.427Z,99813.55
2018-09-04T21:48:06.236Z,99800.94
2018-09-04T21:50:35.013Z,99798.16
2018-09-04T21:53:03.624Z,99802.16
2018-09-04T21:55:32.300Z,99805.80
2018-09-04T21:58:01.022Z,99806.54
2018-09-04T22:00:30.124Z,99805.39
2018-09-04T22:02:59.257Z,99805.25
2018-09-04T22:05:27.893Z,99806.12
2018-09-04T22:07:57.818Z,99797.81
2018-09-04T22:10:27.516Z,99798.32
2018-09-04T22:12:56.780Z,99793.31
2018-09-04T22:15:25.493Z,99793.96
2018-09-04T22:17:54.250Z,99796.90
2018-09-04T22:20:22.916Z,99798.23
2018-09-04T22:22:51.532Z,99793.61
2018-09-04T22:25:20.180Z,99791.80
2018-09-04T22:27:48.859Z,99791.73
2018-09-04T22:30:17.692Z,99796.28
2018-09-04T22:32:46.575Z,99796.66
2018-09-04T22:35:15.263Z,99797.98
2018-09-04T22:37:44.190Z,99795.91
2018-09-04T22:40:12.951Z,99798.23
2018-09-04T22:42:42.215Z,99798.23
2018-09-04T22:45:11.253Z,99795.67
2018-09-04T22:47:41.176Z,99796.52
2018-09-04T22:50:15.042Z,99793.00
2018-09-04T22:52:43.588Z,99794.44
2018-09-04T22:55:13.580Z,99795.30
2018-09-04T22:57:43.530Z,99793.11
2018-09-04T23:00:13.695Z,99791.61
2018-09-04T23:02:42.641Z,99798.97
2018-09-04T23:05:12.776Z,99800.78
2018-09-04T23:07:41.428Z,99796.51
2018-09-04T23:10:10.129Z,99798.32
2018-09-04T23:12:38.934Z,99796.13
2018-09-04T23:15:07.637Z,99798.32
2018-09-04T23:17:36.275Z,99795.89
2018-09-04T23:20:04.999Z,99800.10
2018-09-04T23:22:33.764Z,99798.02
2018-09-04T23:25:02.787Z,99795.56
2018-09-04T23:27:31.565Z,99796.89
2018-09-04T23:30:00.256Z,99798.44
2018-09-04T23:32:29.069Z,99803.39
2018-09-04T23:34:57.988Z,99799.59
2018-09-04T23:37:26.705Z,99799.84
2018-09-04T23:39:55.256Z,99804.14
2018-09-04T23:42:24.172Z,99801.95
2018-09-04T23:44:52.684Z,99803.22
2018-09-04T23:47:21.397Z,99804.28
2018-09-04T23:49:50.152Z,99802.57
2018-09-04T23:52:18.895Z,99803.97
2018-09-04T23:54:47.676Z,99809.70
2018-09-04T23:57:16.280Z,99804.16
2018-09-04T23:59:45.173Z,99810.27
